Time;durP1;ratioP1;P1;durP2;ratioP2;P2;SDS_P1;SDS_P2;PMS_P1;PMS_P2;Temp;Humidity;BMP_temperature;BMP_pressure;BME280_temperature;BME280_humidity;BME280_pressure;Samples;Min_cycle;Max_cycle;Signal;HPM_P1;HPM_P2
2022/04/14 00:01:22;;;;;;;6.83;4.53;;;;;;;;;;5035586;28;20811;-68
2022/04/14 00:03:48;;;;;;;4.67;4.13;;;;;;;;;;5035229;28;20418;-71
2022/04/14 00:06:14;;;;;;;6.50;4.00;;;;;;;;;;5035461;28;20548;-74
2022/04/14 00:08:41;;;;;;;6.30;4.53;;;;;;;;;;5035155;28;20442;-69
2022/04/14 00:11:07;;;;;;;10.87;4.23;;;;;;;;;;5034234;28;20464;-65
2022/04/14 00:13:33;;;;;;;4.90;4.40;;;;;;;;;;5035279;28;20776;-69
2022/04/14 00:15:59;;;;;;;5.60;3.90;;;;;;;;;;5034604;28;20964;-70
2022/04/14 00:18:25;;;;;;;4.70;4.20;;;;;;;;;;5035309;28;20402;-65
2022/04/14 00:20:51;;;;;;;8.10;4.60;;;;;;;;;;5035073;28;20437;-65
2022/04/14 00:23:17;;;;;;;4.83;3.83;;;;;;;;;;5035165;28;20842;-64
2022/04/14 00:25:43;;;;;;;7.80;4.90;;;;;;;;;;5035026;28;20406;-64
2022/04/14 00:28:09;;;;;;;7.60;4.97;;;;;;;;;;5034949;28;20882;-65
2022/04/14 00:30:35;;;;;;;6.73;4.60;;;;;;;;;;5034971;28;20410;-64
2022/04/14 00:33:01;;;;;;;6.00;4.30;;;;;;;;;;5034830;28;20858;-69
2022/04/14 00:35:27;;;;;;;5.83;4.47;;;;;;;;;;5034749;28;20500;-64
2022/04/14 00:37:53;;;;;;;8.50;4.43;;;;;;;;;;5034865;28;20409;-64
2022/04/14 00:40:19;;;;;;;5.60;4.63;;;;;;;;;;5034727;28;20406;-66
2022/04/14 00:42:45;;;;;;;5.23;4.60;;;;;;;;;;5034756;28;20413;-65
2022/04/14 00:45:12;;;;;;;8.50;4.80;;;;;;;;;;5034645;28;20415;-66
2022/04/14 00:47:38;;;;;;;9.30;5.07;;;;;;;;;;5034619;28;20398;-65
2022/04/14 00:50:05;;;;;;;6.33;4.40;;;;;;;;;;5034539;28;20492;-69
2022/04/14 00:52:31;;;;;;;6.63;4.30;;;;;;;;;;5034524;28;20513;-66
2022/04/14 00:54:57;;;;;;;7.63;4.50;;;;;;;;;;5034468;28;20509;-64
2022/04/14 00:57:23;;;;;;;7.27;4.20;;;;;;;;;;5034485;28;20430;-65
2022/04/14 00:59:49;;;;;;;5.13;4.60;;;;;;;;;;5034496;28;20903;-65
2022/04/14 01:02:16;;;;;;;6.97;4.60;;;;;;;;;;5033098;28;20501;-64
2022/04/14 01:04:42;;;;;;;4.90;4.17;;;;;;;;;;5034140;28;20551;-64
2022/04/14 01:07:08;;;;;;;5.77;4.27;;;;;;;;;;5034066;28;20518;-65
2022/04/14 01:09:36;;;;;;;7.07;4.73;;;;;;;;;;5034248;28;20442;-67
2022/04/14 01:12:05;;;;;;;5.83;4.03;;;;;;;;;;5034046;28;20464;-63
2022/04/14 01:14:33;;;;;;;7.57;4.90;;;;;;;;;;5033974;28;20511;-64
2022/04/14 01:17:01;;;;;;;8.97;4.33;;;;;;;;;;5034072;28;20411;-64
2022/04/14 01:19:27;;;;;;;5.93;4.80;;;;;;;;;;5034011;28;20410;-65
2022/04/14 01:21:57;;;;;;;5.20;3.83;;;;;;;;;;5033890;28;20438;-63
2022/04/14 01:24:24;;;;;;;6.40;4.10;;;;;;;;;;5034100;28;20486;-66
2022/04/14 01:26:50;;;;;;;6.40;4.40;;;;;;;;;;5033739;28;20441;-64
2022/04/14 01:29:26;;;;;;;10.30;5.33;;;;;;;;;;5033044;28;20753;-67
2022/04/14 01:31:53;;;;;;;6.97;4.27;;;;;;;;;;5033826;28;20496;-64
2022/04/14 01:34:19;;;;;;;7.80;5.37;;;;;;;;;;5033672;28;20462;-64
2022/04/14 01:36:45;;;;;;;6.07;4.23;;;;;;;;;;5033690;28;20444;-64
2022/04/14 01:39:13;;;;;;;6.23;4.30;;;;;;;;;;5033750;28;20489;-65
2022/04/14 01:41:39;;;;;;;9.77;4.80;;;;;;;;;;5033680;28;20877;-64
2022/04/14 01:44:05;;;;;;;5.10;4.40;;;;;;;;;;5033618;28;21089;-65
2022/04/14 01:46:31;;;;;;;7.93;4.47;;;;;;;;;;5033542;28;20406;-65
2022/04/14 01:48:59;;;;;;;9.30;4.87;;;;;;;;;;5033616;28;20407;-65
2022/04/14 01:51:25;;;;;;;5.50;4.53;;;;;;;;;;5033489;28;20500;-64
2022/04/14 01:53:51;;;;;;;9.33;4.83;;;;;;;;;;5033499;28;20417;-65
2022/04/14 01:56:18;;;;;;;7.03;5.03;;;;;;;;;;5033250;28;20469;-64
2022/04/14 01:58:44;;;;;;;8.13;5.10;;;;;;;;;;5033546;28;20916;-65
2022/04/14 02:01:10;;;;;;;6.67;4.63;;;;;;;;;;5033269;28;20414;-65
2022/04/14 02:03:36;;;;;;;7.70;4.90;;;;;;;;;;5033072;28;20406;-64
2022/04/14 02:06:02;;;;;;;9.90;5.10;;;;;;;;;;5033194;28;20421;-64
2022/04/14 02:08:29;;;;;;;11.13;5.70;;;;;;;;;;5033237;28;20438;-64
2022/04/14 02:10:55;;;;;;;6.57;4.83;;;;;;;;;;5033087;28;20490;-65
2022/04/14 02:13:21;;;;;;;8.43;4.77;;;;;;;;;;5033231;28;20505;-65
2022/04/14 02:15:47;;;;;;;5.83;4.60;;;;;;;;;;5033098;28;20481;-66
2022/04/14 02:18:13;;;;;;;6.80;4.30;;;;;;;;;;5033220;28;20426;-64
2022/04/14 02:20:39;;;;;;;4.97;4.47;;;;;;;;;;5033083;28;20427;-64
2022/04/14 02:23:05;;;;;;;9.67;5.37;;;;;;;;;;5033192;28;20902;-64
2022/04/14 02:25:31;;;;;;;6.13;4.23;;;;;;;;;;5033163;28;20491;-64
2022/04/14 02:27:57;;;;;;;6.13;4.73;;;;;;;;;;5033094;28;20468;-64
2022/04/14 02:30:23;;;;;;;6.60;4.83;;;;;;;;;;5032980;28;20497;-64
2022/04/14 02:32:49;;;;;;;7.50;4.73;;;;;;;;;;5033046;28;20500;-65
2022/04/14 02:35:15;;;;;;;10.83;5.60;;;;;;;;;;5033003;28;20906;-63
2022/04/14 02:37:41;;;;;;;7.23;5.13;;;;;;;;;;5033056;28;21089;-64
2022/04/14 02:40:08;;;;;;;6.30;4.77;;;;;;;;;;5035031;28;20913;-67
2022/04/14 02:42:34;;;;;;;6.63;4.87;;;;;;;;;;5035716;28;20448;-64
2022/04/14 02:45:00;;;;;;;6.23;4.40;;;;;;;;;;5037013;28;20410;-65
2022/04/14 02:47:26;;;;;;;6.63;4.63;;;;;;;;;;5036704;28;20909;-64
2022/04/14 02:49:52;;;;;;;6.37;4.57;;;;;;;;;;5036840;28;20418;-65
2022/04/14 02:52:18;;;;;;;12.43;5.83;;;;;;;;;;5036758;28;20990;-65
2022/04/14 02:54:44;;;;;;;5.33;4.20;;;;;;;;;;5036718;28;20477;-64
2022/04/14 02:57:10;;;;;;;6.50;4.13;;;;;;;;;;5036760;28;20468;-68
2022/04/14 02:59:39;;;;;;;9.53;5.13;;;;;;;;;;5036771;28;20439;-64
2022/04/14 03:02:05;;;;;;;6.30;4.77;;;;;;;;;;5036709;28;20448;-65
2022/04/14 03:04:33;;;;;;;11.20;4.97;;;;;;;;;;5035915;28;20474;-64
2022/04/14 03:06:59;;;;;;;6.93;4.77;;;;;;;;;;5036637;28;20410;-66
2022/04/14 03:09:25;;;;;;;6.83;4.77;;;;;;;;;;5036432;28;20399;-64
2022/04/14 03:11:52;;;;;;;7.80;4.97;;;;;;;;;;5036402;28;20483;-67
2022/04/14 03:14:18;;;;;;;10.90;5.20;;;;;;;;;;5036427;28;20493;-66
2022/04/14 03:16:44;;;;;;;6.63;4.90;;;;;;;;;;5036332;28;20419;-65
2022/04/14 03:19:10;;;;;;;9.20;6.40;;;;;;;;;;5036360;28;20409;-64
2022/04/14 03:21:36;;;;;;;10.33;5.70;;;;;;;;;;5036349;28;20438;-65
2022/04/14 03:24:02;;;;;;;8.87;5.17;;;;;;;;;;5036256;28;20409;-65
2022/04/14 03:26:28;;;;;;;11.33;5.97;;;;;;;;;;5036078;28;20912;-66
2022/04/14 03:28:54;;;;;;;8.43;5.13;;;;;;;;;;5036088;28;20433;-64
2022/04/14 03:31:20;;;;;;;11.03;6.07;;;;;;;;;;5036203;28;20418;-64
2022/04/14 03:33:46;;;;;;;15.90;8.23;;;;;;;;;;5036024;28;20417;-71
2022/04/14 03:36:13;;;;;;;15.17;8.33;;;;;;;;;;5035813;28;20512;-64
2022/04/14 03:38:39;;;;;;;11.43;8.27;;;;;;;;;;5035998;28;20398;-64
2022/04/14 03:41:06;;;;;;;9.80;7.10;;;;;;;;;;5035876;28;20411;-66
2022/04/14 03:43:35;;;;;;;15.30;9.10;;;;;;;;;;5035958;28;20878;-64
2022/04/14 03:46:02;;;;;;;22.33;9.30;;;;;;;;;;5035703;28;20406;-65
2022/04/14 03:48:28;;;;;;;12.60;8.20;;;;;;;;;;5035779;28;20399;-65
2022/04/14 03:50:55;;;;;;;16.63;9.97;;;;;;;;;;5034834;28;20426;-69
2022/04/14 03:53:21;;;;;;;16.50;9.93;;;;;;;;;;5035779;28;20806;-68
2022/04/14 03:55:47;;;;;;;11.83;9.33;;;;;;;;;;5035637;28;21028;-74
2022/04/14 03:58:14;;;;;;;13.07;9.10;;;;;;;;;;5035519;28;20419;-65
2022/04/14 04:00:40;;;;;;;13.23;9.50;;;;;;;;;;5035596;28;20794;-64
2022/04/14 04:03:08;;;;;;;17.10;10.20;;;;;;;;;;5035641;28;20414;-66
2022/04/14 04:05:34;;;;;;;16.63;10.50;;;;;;;;;;5035019;28;20466;-69
2022/04/14 04:08:00;;;;;;;15.50;10.93;;;;;;;;;;5035573;28;20418;-65
2022/04/14 04:10:26;;;;;;;13.90;8.33;;;;;;;;;;5035348;28;20407;-65
2022/04/14 04:12:52;;;;;;;15.07;9.00;;;;;;;;;;5035290;28;20510;-67
2022/04/14 04:15:18;;;;;;;15.47;10.20;;;;;;;;;;5035308;28;20462;-67
2022/04/14 04:17:46;;;;;;;16.17;9.67;;;;;;;;;;5035203;28;20402;-66
2022/04/14 04:20:12;;;;;;;15.47;10.37;;;;;;;;;;5035176;28;20453;-67
2022/04/14 04:22:39;;;;;;;14.47;9.50;;;;;;;;;;5033806;28;20434;-68
2022/04/14 04:25:05;;;;;;;21.73;11.47;;;;;;;;;;5034988;28;20450;-75
2022/04/14 04:27:31;;;;;;;17.23;10.43;;;;;;;;;;5035040;28;20399;-79
2022/04/14 04:29:57;;;;;;;17.70;10.07;;;;;;;;;;5035034;28;20414;-69
2022/04/14 04:32:23;;;;;;;14.47;10.17;;;;;;;;;;5035011;28;20463;-68
2022/04/14 04:34:49;;;;;;;15.53;9.43;;;;;;;;;;5033721;28;20501;-70
2022/04/14 04:37:15;;;;;;;15.60;9.20;;;;;;;;;;5034839;28;20434;-70
2022/04/14 04:39:41;;;;;;;14.43;9.43;;;;;;;;;;5034799;28;20886;-73
2022/04/14 04:42:08;;;;;;;18.47;10.00;;;;;;;;;;5033495;28;20409;-72
2022/04/14 04:44:34;;;;;;;16.03;10.70;;;;;;;;;;5033391;28;20454;-71
2022/04/14 04:47:00;;;;;;;18.63;10.27;;;;;;;;;;5034703;28;20446;-74
2022/04/14 04:49:26;;;;;;;16.17;11.57;;;;;;;;;;5034912;28;20858;-67
2022/04/14 04:51:52;;;;;;;19.20;11.73;;;;;;;;;;5034612;28;20433;-66
2022/04/14 04:54:18;;;;;;;15.40;11.23;;;;;;;;;;5034548;28;20407;-67
2022/04/14 04:56:44;;;;;;;20.83;12.53;;;;;;;;;;5034449;28;20410;-75
2022/04/14 04:59:10;;;;;;;18.20;11.57;;;;;;;;;;5034402;28;20817;-71
2022/04/14 05:01:36;;;;;;;15.07;10.47;;;;;;;;;;5034458;28;20403;-71
2022/04/14 05:04:02;;;;;;;16.37;10.77;;;;;;;;;;5034062;28;20482;-68
2022/04/14 05:06:28;;;;;;;16.53;9.90;;;;;;;;;;5034177;28;20426;-74
2022/04/14 05:08:54;;;;;;;17.93;10.67;;;;;;;;;;5034280;28;20501;-72
2022/04/14 05:11:20;;;;;;;15.20;9.60;;;;;;;;;;5034309;28;20762;-65
2022/04/14 05:13:46;;;;;;;14.40;9.40;;;;;;;;;;5034085;28;20398;-74
2022/04/14 05:16:12;;;;;;;12.80;9.93;;;;;;;;;;5033917;28;20478;-68
2022/04/14 05:18:39;;;;;;;16.70;9.93;;;;;;;;;;5034069;28;20460;-74
2022/04/14 05:21:05;;;;;;;17.40;11.10;;;;;;;;;;5033986;28;20438;-66
2022/04/14 05:23:31;;;;;;;16.87;11.70;;;;;;;;;;5033957;28;20402;-64
2022/04/14 05:25:57;;;;;;;21.50;13.03;;;;;;;;;;5033751;28;20406;-70
2022/04/14 05:28:23;;;;;;;19.57;13.77;;;;;;;;;;5033950;28;20425;-66
2022/04/14 05:30:49;;;;;;;25.00;14.23;;;;;;;;;;5033835;28;20407;-66
2022/04/14 05:33:15;;;;;;;22.10;14.63;;;;;;;;;;5033862;28;20476;-67
2022/04/14 05:35:43;;;;;;;21.73;13.60;;;;;;;;;;5033588;28;20528;-65
2022/04/14 05:38:09;;;;;;;22.90;14.67;;;;;;;;;;5033729;28;20436;-67
2022/04/14 05:40:41;;;;;;;27.77;18.80;;;;;;;;;;5033636;28;20418;-66
2022/04/14 05:43:07;;;;;;;29.87;19.13;;;;;;;;;;5033740;28;20454;-66
2022/04/14 05:45:34;;;;;;;29.73;19.70;;;;;;;;;;5033494;28;20414;-70
2022/04/14 05:48:00;;;;;;;33.67;21.40;;;;;;;;;;5033592;28;21324;-72
2022/04/14 05:50:27;;;;;;;29.97;19.00;;;;;;;;;;5032172;28;20418;-68
2022/04/14 05:52:55;;;;;;;33.33;21.27;;;;;;;;;;5033561;28;20473;-65
2022/04/14 05:55:21;;;;;;;27.57;17.60;;;;;;;;;;5033355;28;20473;-66
2022/04/14 05:57:47;;;;;;;28.00;19.37;;;;;;;;;;5033425;28;20394;-69
2022/04/14 06:00:13;;;;;;;32.07;20.00;;;;;;;;;;5033365;28;20463;-67
2022/04/14 06:02:40;;;;;;;40.90;22.67;;;;;;;;;;5033331;28;20763;-65
2022/04/14 06:05:06;;;;;;;32.07;21.10;;;;;;;;;;5032997;28;20450;-70
2022/04/14 06:07:32;;;;;;;35.40;22.20;;;;;;;;;;5033303;28;20419;-65
2022/04/14 06:09:58;;;;;;;35.83;22.37;;;;;;;;;;5033156;28;20422;-65
2022/04/14 06:12:24;;;;;;;36.20;21.93;;;;;;;;;;5033182;28;20434;-64
2022/04/14 06:14:50;;;;;;;38.20;23.30;;;;;;;;;;5032536;28;20462;-69
2022/04/14 06:17:16;;;;;;;37.43;23.27;;;;;;;;;;5033179;28;20409;-66
2022/04/14 06:19:42;;;;;;;35.13;24.10;;;;;;;;;;5033192;28;20410;-64
2022/04/14 06:22:08;;;;;;;36.43;22.97;;;;;;;;;;5033099;28;20480;-65
2022/04/14 06:24:35;;;;;;;34.37;22.00;;;;;;;;;;5032908;28;20457;-67
2022/04/14 06:27:01;;;;;;;35.97;22.83;;;;;;;;;;5032985;28;20410;-75
2022/04/14 06:29:27;;;;;;;35.50;23.20;;;;;;;;;;5033107;28;20407;-68
2022/04/14 06:31:53;;;;;;;31.03;21.90;;;;;;;;;;5031775;28;20821;-66
2022/04/14 06:34:18;;;;;;;34.10;22.83;;;;;;;;;;5032940;28;20480;-67
2022/04/14 06:36:45;;;;;;;34.13;21.50;;;;;;;;;;5032932;28;20777;-64
2022/04/14 06:39:12;;;;;;;31.73;21.33;;;;;;;;;;5032868;28;20860;-65
2022/04/14 06:41:39;;;;;;;32.93;23.33;;;;;;;;;;5032778;28;20476;-68
2022/04/14 06:44:06;;;;;;;27.67;20.30;;;;;;;;;;5032676;28;20446;-73
2022/04/14 06:46:32;;;;;;;27.83;20.03;;;;;;;;;;5032574;28;20414;-67
2022/04/14 06:48:58;;;;;;;28.73;20.13;;;;;;;;;;5031556;28;20407;-65
2022/04/14 06:51:24;;;;;;;27.50;19.20;;;;;;;;;;5031287;28;20435;-66
2022/04/14 06:53:50;;;;;;;31.30;20.20;;;;;;;;;;5032784;28;20414;-67
2022/04/14 06:56:16;;;;;;;28.00;20.00;;;;;;;;;;5032574;28;20482;-65
2022/04/14 06:58:42;;;;;;;25.17;18.00;;;;;;;;;;5032908;28;20434;-68
2022/04/14 07:01:08;;;;;;;29.93;22.07;;;;;;;;;;5032743;28;20485;-70
2022/04/14 07:03:35;;;;;;;27.57;18.27;;;;;;;;;;5032607;28;20428;-75
2022/04/14 07:06:01;;;;;;;25.37;18.60;;;;;;;;;;5032486;28;20516;-65
2022/04/14 07:08:27;;;;;;;28.13;19.00;;;;;;;;;;5032762;28;20560;-70
2022/04/14 07:10:54;;;;;;;24.10;18.50;;;;;;;;;;5032730;28;20398;-69
2022/04/14 07:13:20;;;;;;;26.40;17.93;;;;;;;;;;5031353;28;20754;-65
2022/04/14 07:15:46;;;;;;;30.50;18.00;;;;;;;;;;5032290;28;20797;-65
2022/04/14 07:18:12;;;;;;;25.30;19.37;;;;;;;;;;5032776;28;20402;-67
2022/04/14 07:20:38;;;;;;;30.23;17.60;;;;;;;;;;5032426;28;20446;-67
2022/04/14 07:23:06;;;;;;;26.70;18.57;;;;;;;;;;5032671;28;20498;-75
2022/04/14 07:25:33;;;;;;;27.10;17.87;;;;;;;;;;5032384;28;20528;-72
2022/04/14 07:28:00;;;;;;;27.53;17.60;;;;;;;;;;5034354;28;20414;-74
2022/04/14 07:30:26;;;;;;;32.90;19.00;;;;;;;;;;5036098;28;20427;-73
2022/04/14 07:32:52;;;;;;;32.27;20.63;;;;;;;;;;5035904;28;20800;-74
2022/04/14 07:35:21;;;;;;;27.27;19.40;;;;;;;;;;5035728;28;20813;-69
2022/04/14 07:37:48;;;;;;;25.80;18.60;;;;;;;;;;5036024;28;20493;-72
2022/04/14 07:40:14;;;;;;;27.87;18.17;;;;;;;;;;5035893;28;20411;-76
2022/04/14 07:42:41;;;;;;;30.40;18.83;;;;;;;;;;5035881;28;20472;-74
2022/04/14 07:45:08;;;;;;;29.80;18.83;;;;;;;;;;5035627;28;20442;-74
2022/04/14 07:47:35;;;;;;;28.63;18.13;;;;;;;;;;5034540;28;20772;-70
2022/04/14 07:50:01;;;;;;;24.27;17.60;;;;;;;;;;5035644;28;20889;-64
2022/04/14 07:52:27;;;;;;;25.37;18.83;;;;;;;;;;5035714;28;20430;-70
2022/04/14 07:54:53;;;;;;;25.33;19.20;;;;;;;;;;5035498;28;20988;-72
2022/04/14 07:57:19;;;;;;;25.50;18.60;;;;;;;;;;5035533;28;20480;-73
2022/04/14 07:59:45;;;;;;;24.53;18.73;;;;;;;;;;5035452;28;20762;-75
2022/04/14 08:02:11;;;;;;;23.53;16.20;;;;;;;;;;5035445;28;20421;-74
2022/04/14 08:04:38;;;;;;;23.67;17.20;;;;;;;;;;5035087;28;20491;-69
2022/04/14 08:07:04;;;;;;;26.30;16.83;;;;;;;;;;5035379;28;20442;-69
2022/04/14 08:09:30;;;;;;;24.57;17.63;;;;;;;;;;5035423;28;20401;-70
2022/04/14 08:11:56;;;;;;;24.60;17.57;;;;;;;;;;5035309;28;20414;-75
2022/04/14 08:14:22;;;;;;;25.50;17.53;;;;;;;;;;5035200;28;20751;-75
2022/04/14 08:16:48;;;;;;;32.20;17.97;;;;;;;;;;5035069;28;20507;-76
2022/04/14 08:19:14;;;;;;;22.40;16.50;;;;;;;;;;5035146;28;20399;-71
2022/04/14 08:21:40;;;;;;;29.23;17.40;;;;;;;;;;5035083;28;20426;-75
2022/04/14 08:24:07;;;;;;;19.87;16.20;;;;;;;;;;5035002;28;20490;-75
2022/04/14 08:26:34;;;;;;;20.30;15.57;;;;;;;;;;5034741;28;20782;-74
2022/04/14 08:29:00;;;;;;;23.37;15.80;;;;;;;;;;5035012;28;20413;-75
2022/04/14 08:31:26;;;;;;;28.27;17.37;;;;;;;;;;5034967;28;20402;-76
2022/04/14 08:33:53;;;;;;;32.77;18.33;;;;;;;;;;5034845;28;20748;-75
2022/04/14 08:36:21;;;;;;;23.43;17.13;;;;;;;;;;5034761;28;20486;-74
2022/04/14 08:38:48;;;;;;;25.03;17.03;;;;;;;;;;5033257;28;20411;-73
2022/04/14 08:41:17;;;;;;;26.00;19.27;;;;;;;;;;5033549;28;20491;-74
2022/04/14 08:43:56;;;;;;;25.60;16.10;;;;;;;;;;5034828;28;20913;-75
2022/04/14 08:46:22;;;;;;;27.87;17.17;;;;;;;;;;5034465;28;20411;-74
2022/04/14 08:48:50;;;;;;;29.63;17.73;;;;;;;;;;5034704;28;20406;-74
2022/04/14 08:51:17;;;;;;;24.00;16.00;;;;;;;;;;5034645;28;20426;-71
2022/04/14 08:53:43;;;;;;;21.93;16.47;;;;;;;;;;5033371;28;20902;-74
2022/04/14 08:56:10;;;;;;;28.93;17.37;;;;;;;;;;5034309;28;20501;-75
2022/04/14 08:58:37;;;;;;;23.57;16.97;;;;;;;;;;5034497;28;20498;-76
2022/04/14 09:01:04;;;;;;;27.33;17.70;;;;;;;;;;5034470;28;20417;-75
2022/04/14 09:03:31;;;;;;;22.30;15.83;;;;;;;;;;5033276;28;20411;-73
2022/04/14 09:05:58;;;;;;;24.03;17.00;;;;;;;;;;5033967;28;20457;-75
2022/04/14 09:08:24;;;;;;;21.43;15.30;;;;;;;;;;5032953;28;20426;-75
2022/04/14 09:10:51;;;;;;;24.03;16.93;;;;;;;;;;5034329;28;20407;-75
2022/04/14 09:13:18;;;;;;;25.90;17.07;;;;;;;;;;5034178;28;20473;-75
2022/04/14 09:15:44;;;;;;;25.13;16.50;;;;;;;;;;5032698;28;20528;-75
2022/04/14 09:18:10;;;;;;;24.73;16.57;;;;;;;;;;5034083;28;20406;-74
2022/04/14 09:20:37;;;;;;;23.03;16.03;;;;;;;;;;5032575;28;20435;-75
2022/04/14 09:23:10;;;;;;;23.60;14.80;;;;;;;;;;5033959;28;20795;-74
2022/04/14 09:25:36;;;;;;;23.67;16.77;;;;;;;;;;5033728;28;20403;-74
2022/04/14 09:28:13;;;;;;;21.70;16.40;;;;;;;;;;5032660;28;20960;-75
2022/04/14 09:30:39;;;;;;;25.30;16.67;;;;;;;;;;5033810;28;20905;-73
2022/04/14 09:33:05;;;;;;;21.40;16.13;;;;;;;;;;5033828;28;20505;-72
2022/04/14 09:35:31;;;;;;;24.80;17.37;;;;;;;;;;5033621;28;20457;-75
2022/04/14 09:38:06;;;;;;;22.20;15.90;;;;;;;;;;5033669;28;20418;-74
2022/04/14 09:40:37;;;;;;;22.67;17.47;;;;;;;;;;5033726;28;20438;-75
2022/04/14 09:43:04;;;;;;;25.80;18.60;;;;;;;;;;5033751;28;20430;-74
2022/04/14 09:45:32;;;;;;;22.23;16.33;;;;;;;;;;5033453;28;20445;-76
2022/04/14 09:48:02;;;;;;;21.60;17.93;;;;;;;;;;5033623;28;20403;-73
2022/04/14 09:50:43;;;;;;;24.93;18.30;;;;;;;;;;5032801;28;20920;-74
2022/04/14 09:53:10;;;;;;;27.20;16.40;;;;;;;;;;5033395;28;20434;-75
2022/04/14 09:55:40;;;;;;;25.77;17.00;;;;;;;;;;5033310;28;20987;-74
2022/04/14 09:58:17;;;;;;;24.70;17.87;;;;;;;;;;5033389;28;20785;-76
2022/04/14 10:00:46;;;;;;;20.43;16.53;;;;;;;;;;5033273;28;20509;-75
2022/04/14 10:03:14;;;;;;;22.53;16.70;;;;;;;;;;5033235;28;20411;-73
2022/04/14 10:05:40;;;;;;;22.37;17.43;;;;;;;;;;5032909;28;20930;-76
2022/04/14 10:08:09;;;;;;;24.03;17.40;;;;;;;;;;5033189;28;20418;-70
2022/04/14 10:10:36;;;;;;;25.70;17.50;;;;;;;;;;5033213;28;20402;-74
2022/04/14 10:13:05;;;;;;;24.17;17.23;;;;;;;;;;5033104;28;20421;-73
2022/04/14 10:15:32;;;;;;;24.07;17.80;;;;;;;;;;5032985;28;20466;-73
2022/04/14 10:17:58;;;;;;;26.97;18.40;;;;;;;;;;5033019;28;20402;-71
2022/04/14 10:20:25;;;;;;;23.60;17.80;;;;;;;;;;5032988;28;20489;-71
2022/04/14 10:22:51;;;;;;;23.73;16.90;;;;;;;;;;5033010;28;20403;-75
2022/04/14 10:25:17;;;;;;;22.87;17.03;;;;;;;;;;5031523;28;20523;-75
2022/04/14 10:27:44;;;;;;;22.93;15.40;;;;;;;;;;5031562;28;20790;-73
2022/04/14 10:30:11;;;;;;;21.00;14.60;;;;;;;;;;5032942;28;20423;-76
2022/04/14 10:32:37;;;;;;;22.90;15.43;;;;;;;;;;5032880;28;20858;-66
2022/04/14 10:35:04;;;;;;;24.87;16.73;;;;;;;;;;5032666;28;20472;-68
2022/04/14 10:37:33;;;;;;;19.63;15.77;;;;;;;;;;5032953;28;20410;-71
2022/04/14 10:39:59;;;;;;;28.80;15.37;;;;;;;;;;5032895;28;20873;-64
2022/04/14 10:42:27;;;;;;;28.73;15.97;;;;;;;;;;5032816;28;20505;-68
2022/04/14 10:44:53;;;;;;;21.60;14.43;;;;;;;;;;5032419;28;20411;-68
2022/04/14 10:47:38;;;;;;;21.07;16.57;;;;;;;;;;5032670;28;20422;-73
2022/04/14 10:50:04;;;;;;;23.10;17.07;;;;;;;;;;5031384;28;20513;-70
2022/04/14 10:52:30;;;;;;;27.57;17.70;;;;;;;;;;5032538;28;20446;-68
2022/04/14 10:54:57;;;;;;;23.40;16.00;;;;;;;;;;5032406;28;20458;-66
2022/04/14 10:57:39;;;;;;;30.87;17.27;;;;;;;;;;5032604;28;20450;-69
2022/04/14 11:00:26;;;;;;;23.77;16.97;;;;;;;;;;5032859;28;20413;-72
2022/04/14 11:03:13;;;;;;;24.00;16.10;;;;;;;;;;5036084;28;20418;-73
2022/04/14 11:05:43;;;;;;;30.57;18.00;;;;;;;;;;5036077;28;20935;-74
2022/04/14 11:08:23;;;;;;;24.87;16.17;;;;;;;;;;5036438;28;20421;-71
2022/04/14 11:10:52;;;;;;;23.87;16.97;;;;;;;;;;5036303;28;20471;-75
2022/04/14 11:13:18;;;;;;;19.97;16.10;;;;;;;;;;5036209;28;20460;-71
2022/04/14 11:15:44;;;;;;;24.57;16.23;;;;;;;;;;5035941;28;21100;-75
2022/04/14 11:18:10;;;;;;;23.93;16.53;;;;;;;;;;5036243;28;20757;-74
2022/04/14 11:20:37;;;;;;;23.60;16.87;;;;;;;;;;5035998;28;20426;-74
2022/04/14 11:23:09;;;;;;;27.60;17.60;;;;;;;;;;5036203;28;20425;-73
2022/04/14 11:25:44;;;;;;;20.13;16.67;;;;;;;;;;5035916;28;20406;-72
2022/04/14 11:28:33;;;;;;;25.17;17.50;;;;;;;;;;5035893;28;20398;-75
2022/04/14 11:31:04;;;;;;;19.87;15.13;;;;;;;;;;5035989;28;20904;-65
2022/04/14 11:33:30;;;;;;;23.80;16.23;;;;;;;;;;5035934;28;20410;-66
2022/04/14 11:36:09;;;;;;;22.83;15.70;;;;;;;;;;5035622;28;20627;-71
2022/04/14 11:38:54;;;;;;;26.67;16.53;;;;;;;;;;5035858;28;20741;-66
2022/04/14 11:41:30;;;;;;;23.97;15.73;;;;;;;;;;5035751;28;20410;-68
2022/04/14 11:43:57;;;;;;;24.37;16.00;;;;;;;;;;5035656;28;20455;-70
2022/04/14 11:46:26;;;;;;;26.90;17.20;;;;;;;;;;5035602;28;20394;-67
2022/04/14 11:48:52;;;;;;;25.37;16.70;;;;;;;;;;5034457;28;20406;-66
2022/04/14 11:51:18;;;;;;;25.63;17.03;;;;;;;;;;5035549;28;20441;-65
2022/04/14 11:53:44;;;;;;;22.90;16.53;;;;;;;;;;5035546;28;20912;-66
2022/04/14 11:56:20;;;;;;;24.63;17.23;;;;;;;;;;5035406;28;20470;-66
2022/04/14 11:58:47;;;;;;;24.00;15.67;;;;;;;;;;5035386;28;20402;-69
2022/04/14 12:01:13;;;;;;;19.17;14.73;;;;;;;;;;5035168;28;20418;-77
2022/04/14 12:03:40;;;;;;;24.87;16.20;;;;;;;;;;5035394;28;20406;-76
2022/04/14 12:06:08;;;;;;;20.30;15.80;;;;;;;;;;5035246;28;20428;-76
2022/04/14 12:08:34;;;;;;;21.23;16.53;;;;;;;;;;5035270;28;20407;-76
2022/04/14 12:11:04;;;;;;;20.67;16.53;;;;;;;;;;5035361;28;20821;-76
2022/04/14 12:13:33;;;;;;;24.23;17.20;;;;;;;;;;5033309;28;20414;-77
2022/04/14 12:16:04;;;;;;;25.37;18.70;;;;;;;;;;5033894;28;20477;-76
2022/04/14 12:18:30;;;;;;;23.83;17.67;;;;;;;;;;5035181;28;20460;-76
2022/04/14 12:20:56;;;;;;;25.10;18.07;;;;;;;;;;5035111;28;20462;-76
2022/04/14 12:23:22;;;;;;;21.03;15.90;;;;;;;;;;5033962;28;20464;-76
2022/04/14 12:25:48;;;;;;;22.73;18.40;;;;;;;;;;5034944;28;20407;-77
2022/04/14 12:28:14;;;;;;;26.00;18.00;;;;;;;;;;5034997;28;20410;-77
2022/04/14 12:30:41;;;;;;;23.70;17.57;;;;;;;;;;5035026;28;20498;-76
2022/04/14 12:33:07;;;;;;;24.73;17.90;;;;;;;;;;5033722;28;20411;-76
2022/04/14 12:35:38;;;;;;;24.20;17.17;;;;;;;;;;5034848;28;20957;-76
2022/04/14 12:38:17;;;;;;;27.40;18.67;;;;;;;;;;5034890;28;20417;-77
2022/04/14 12:40:56;;;;;;;25.23;19.60;;;;;;;;;;5034924;28;20468;-74
2022/04/14 12:43:28;;;;;;;25.20;17.67;;;;;;;;;;5034799;28;20422;-76
2022/04/14 12:45:54;;;;;;;22.27;17.17;;;;;;;;;;5034709;28;20403;-77
2022/04/14 12:48:27;;;;;;;27.13;17.83;;;;;;;;;;5034711;28;20413;-75
2022/04/14 12:50:56;;;;;;;25.50;19.53;;;;;;;;;;5034644;28;20419;-77
2022/04/14 12:53:23;;;;;;;22.83;15.80;;;;;;;;;;5034639;28;20787;-77
2022/04/14 12:55:49;;;;;;;22.93;16.53;;;;;;;;;;5034436;28;20469;-76
2022/04/14 12:58:15;;;;;;;28.20;18.80;;;;;;;;;;5034373;28;20424;-77
2022/04/14 13:00:41;;;;;;;23.70;19.07;;;;;;;;;;5034613;28;20909;-77
2022/04/14 13:03:14;;;;;;;19.83;16.90;;;;;;;;;;5034305;28;20775;-78
2022/04/14 13:05:41;;;;;;;25.20;18.67;;;;;;;;;;5034036;28;20577;-77
2022/04/14 13:08:07;;;;;;;27.00;17.13;;;;;;;;;;5034258;28;20501;-77
2022/04/14 13:10:34;;;;;;;22.60;17.50;;;;;;;;;;5034389;28;20497;-78
2022/04/14 13:13:01;;;;;;;23.00;18.03;;;;;;;;;;5034323;28;20422;-77
2022/04/14 13:15:31;;;;;;;26.80;19.17;;;;;;;;;;5034035;28;20991;-77
2022/04/14 13:17:58;;;;;;;23.10;17.40;;;;;;;;;;5034144;28;20438;-70
2022/04/14 13:20:37;;;;;;;23.90;18.20;;;;;;;;;;5033886;28;20403;-67
2022/04/14 13:23:08;;;;;;;23.77;20.00;;;;;;;;;;5033833;28;20445;-69
2022/04/14 13:25:34;;;;;;;23.37;18.50;;;;;;;;;;5033050;28;20397;-73
2022/04/14 13:28:00;;;;;;;25.63;19.60;;;;;;;;;;5034014;28;20414;-76
2022/04/14 13:30:26;;;;;;;21.97;18.53;;;;;;;;;;5033899;28;20402;-66
2022/04/14 13:32:52;;;;;;;26.60;18.50;;;;;;;;;;5033663;28;20421;-68
2022/04/14 13:35:20;;;;;;;22.23;17.37;;;;;;;;;;5033610;28;20465;-65
2022/04/14 13:37:46;;;;;;;24.70;18.30;;;;;;;;;;5033786;28;20410;-74
2022/04/14 13:40:15;;;;;;;25.20;17.37;;;;;;;;;;5033696;28;20430;-65
2022/04/14 13:42:42;;;;;;;22.27;18.90;;;;;;;;;;5033737;28;20426;-66
2022/04/14 13:45:09;;;;;;;23.27;17.13;;;;;;;;;;5033359;28;20766;-66
2022/04/14 13:47:37;;;;;;;22.53;18.20;;;;;;;;;;5032230;28;20886;-65
2022/04/14 13:50:03;;;;;;;24.27;20.40;;;;;;;;;;5033597;28;20452;-66
2022/04/14 13:52:29;;;;;;;21.23;17.50;;;;;;;;;;5033456;28;20418;-71
2022/04/14 13:54:55;;;;;;;27.67;19.37;;;;;;;;;;5033306;28;20450;-67
2022/04/14 13:57:21;;;;;;;21.53;18.20;;;;;;;;;;5033333;28;20414;-67
2022/04/14 13:59:47;;;;;;;34.30;18.80;;;;;;;;;;5033298;28;20418;-69
2022/04/14 14:02:13;;;;;;;26.60;20.30;;;;;;;;;;5033341;28;20414;-67
2022/04/14 14:04:39;;;;;;;25.03;19.43;;;;;;;;;;5032937;28;20990;-73
2022/04/14 14:07:05;;;;;;;31.70;20.90;;;;;;;;;;5033194;28;20485;-76
2022/04/14 14:09:31;;;;;;;21.30;17.53;;;;;;;;;;5033171;28;20517;-76
2022/04/14 14:11:57;;;;;;;22.13;16.30;;;;;;;;;;5033255;28;20445;-76
2022/04/14 14:14:24;;;;;;;24.87;19.10;;;;;;;;;;5032990;28;21001;-74
2022/04/14 14:16:50;;;;;;;22.13;18.77;;;;;;;;;;5033121;28;20414;-75
2022/04/14 14:19:20;;;;;;;29.13;18.27;;;;;;;;;;5032997;28;20407;-77
2022/04/14 14:21:46;;;;;;;22.63;17.73;;;;;;;;;;5032988;28;20497;-65
2022/04/14 14:24:12;;;;;;;24.73;16.90;;;;;;;;;;5033133;28;20957;-66